Time;durP1;ratioP1;P1;durP2;ratioP2;P2;SDS_P1;SDS_P2;PMS_P1;PMS_P2;Temp;Humidity;BMP_temperature;BMP_pressure;BME280_temperature;BME280_humidity;BME280_pressure;Samples;Min_cycle;Max_cycle;Signal;HPM_P1;HPM_P2
2022/06/26 00:01:40;;;;;;;11.50;7.03;;;;;;;17.72;84.09;101246.22;4872648;29;20116;-79
2022/06/26 00:04:05;;;;;;;8.35;7.53;;;;;;;17.71;84.48;101239.22;4866049;29;20351;-78
2022/06/26 00:06:31;;;;;;;6.82;6.22;;;;;;;17.70;84.15;101239.31;4866645;29;20065;-78
2022/06/26 00:08:56;;;;;;;7.55;6.32;;;;;;;17.70;84.03;101256.09;4866270;29;20044;-79
2022/06/26 00:11:22;;;;;;;6.47;5.82;;;;;;;17.69;83.84;101267.59;4866350;29;20040;-78
2022/06/26 00:13:47;;;;;;;8.80;6.18;;;;;;;17.68;83.54;101263.25;4868805;29;20453;-79
2022/06/26 00:16:13;;;;;;;6.93;6.32;;;;;;;17.66;83.44;101265.16;4865630;29;20049;-78
2022/06/26 00:18:40;;;;;;;5.80;5.30;;;;;;;17.65;83.81;101266.97;4898386;29;20052;-79
2022/06/26 00:21:06;;;;;;;10.65;6.25;;;;;;;17.65;83.36;101268.75;4881832;29;20032;-79
2022/06/26 00:23:32;;;;;;;6.70;6.10;;;;;;;17.64;83.55;101261.75;4896453;29;20494;-78
2022/06/26 00:25:57;;;;;;;7.05;5.15;;;;;;;17.61;83.43;101260.16;4901978;29;20327;-78
2022/06/26 00:28:23;;;;;;;7.22;5.68;;;;;;;17.61;82.92;101267.25;4871927;29;20048;-79
2022/06/26 00:30:48;;;;;;;6.35;5.78;;;;;;;17.60;83.25;101265.56;4882111;29;20123;-79
2022/06/26 00:33:13;;;;;;;6.70;6.15;;;;;;;17.58;83.05;101270.94;4876534;29;20208;-78
2022/06/26 00:35:40;;;;;;;7.15;6.32;;;;;;;17.57;82.92;101269.25;4894582;29;20250;-78
2022/06/26 00:38:06;;;;;;;11.48;6.45;;;;;;;17.56;82.93;101270.19;4882303;29;20039;-78
2022/06/26 00:40:31;;;;;;;7.18;6.47;;;;;;;17.56;83.05;101274.66;4881787;29;20475;-78
2022/06/26 00:42:57;;;;;;;8.15;7.35;;;;;;;17.55;83.43;101267.63;4890058;29;20040;-78
2022/06/26 00:45:22;;;;;;;8.07;7.15;;;;;;;17.54;82.97;101269.44;4900693;29;20043;-79
2022/06/26 00:47:48;;;;;;;8.23;7.45;;;;;;;17.54;83.06;101265.94;4856327;29;20107;-78
2022/06/26 00:50:13;;;;;;;10.15;8.25;;;;;;;17.51;82.58;101264.31;4874203;29;20028;-78
2022/06/26 00:52:40;;;;;;;9.80;8.00;;;;;;;17.51;82.90;101260.84;4866513;29;20419;-78
2022/06/26 00:55:06;;;;;;;10.52;8.57;;;;;;;17.50;82.86;101265.28;4882180;29;20356;-78
2022/06/26 00:57:34;;;;;;;8.93;8.10;;;;;;;17.50;82.90;101261.78;4883079;29;20332;-78
2022/06/26 00:59:59;;;;;;;9.82;8.82;;;;;;;17.49;83.18;101255.63;4882541;29;20417;-78
2022/06/26 01:04:59;;;;;;;15.38;8.90;;;;;;;17.46;83.27;101269.06;4876437;29;20221;-78
2022/06/26 01:07:25;;;;;;;11.05;9.20;;;;;;;17.45;83.17;101267.38;4852241;29;20037;-78
2022/06/26 01:09:51;;;;;;;11.20;9.60;;;;;;;17.44;83.32;101269.19;4866798;29;20029;-78
2022/06/26 01:12:17;;;;;;;10.63;9.52;;;;;;;17.43;83.56;101256.88;4865887;29;20037;-78
2022/06/26 01:14:42;;;;;;;12.45;9.98;;;;;;;17.41;83.56;101266.72;4867563;29;20079;-78
2022/06/26 01:17:09;;;;;;;15.35;9.75;;;;;;;17.40;83.61;101275.59;4864859;29;20040;-78
2022/06/26 01:19:34;;;;;;;12.82;10.35;;;;;;;17.40;83.73;101269.47;4850751;29;20041;-79
2022/06/26 01:22:00;;;;;;;12.10;9.15;;;;;;;17.38;83.64;101277.50;4880956;29;20064;-78
2022/06/26 01:24:25;;;;;;;16.23;10.10;;;;;;;17.38;83.50;101281.94;4882612;29;20311;-78
2022/06/26 01:26:50;;;;;;;10.85;9.43;;;;;;;17.37;83.35;101282.88;4850132;29;20044;-78
2022/06/26 01:29:16;;;;;;;12.48;9.50;;;;;;;17.36;83.33;101276.75;4882231;29;20080;-78
2022/06/26 01:31:41;;;;;;;11.40;9.70;;;;;;;17.34;83.30;101278.63;4880766;29;20085;-78
2022/06/26 01:34:08;;;;;;;12.45;9.45;;;;;;;17.34;83.73;101277.78;4884164;29;20366;-78
2022/06/26 01:36:35;;;;;;;10.23;8.82;;;;;;;17.34;83.43;101283.09;4865353;29;20041;-79
2022/06/26 01:39:00;;;;;;;11.98;8.27;;;;;;;17.32;83.53;101284.94;4882334;29;20106;-78
2022/06/26 01:41:26;;;;;;;12.15;9.63;;;;;;;17.30;83.36;101277.13;4881814;29;20094;-78
2022/06/26 01:43:52;;;;;;;11.15;9.55;;;;;;;17.30;83.57;101286.84;4883160;29;20025;-78
2022/06/26 01:46:19;;;;;;;11.60;8.73;;;;;;;17.28;83.58;101281.63;4865087;29;20036;-79
2022/06/26 01:48:44;;;;;;;11.18;9.02;;;;;;;17.27;83.48;101282.59;4865728;29;20033;-78
2022/06/26 01:51:10;;;;;;;10.02;9.02;;;;;;;17.26;83.18;101286.19;4864638;29;20289;-78
2022/06/26 01:53:36;;;;;;;10.75;8.55;;;;;;;17.24;83.20;101282.78;4880325;29;20216;-79
2022/06/26 01:56:02;;;;;;;10.27;7.85;;;;;;;17.23;83.08;101283.75;4882624;29;20025;-79
2022/06/26 01:58:28;;;;;;;9.75;8.75;;;;;;;17.21;83.04;101278.53;4869249;29;20041;-78
2022/06/26 02:00:53;;;;;;;11.43;7.78;;;;;;;17.20;82.91;101281.28;4864855;29;20051;-78
2022/06/26 02:03:20;;;;;;;8.82;7.95;;;;;;;17.20;83.16;101281.28;4880470;29;20045;-78
2022/06/26 02:05:46;;;;;;;8.30;7.70;;;;;;;17.17;82.91;101281.47;4867386;29;20029;-79
2022/06/26 02:08:11;;;;;;;9.90;7.40;;;;;;;17.16;82.80;101279.78;4864587;29;20040;-78
2022/06/26 02:13:36;;;;;;;10.45;7.82;;;;;;;17.14;82.99;101281.66;4867321;29;20040;-78
2022/06/26 02:16:05;;;;;;;10.93;6.70;;;;;;;17.12;82.84;101278.25;4882107;29;20036;-78
2022/06/26 02:18:31;;;;;;;8.82;7.60;;;;;;;17.11;82.71;101268.63;4864754;29;20057;-79
2022/06/26 02:20:57;;;;;;;8.27;6.95;;;;;;;17.11;82.73;101276.56;4881571;29;20104;-78
2022/06/26 02:23:22;;;;;;;7.90;6.90;;;;;;;17.07;82.67;101273.25;4880006;29;20295;-78
2022/06/26 02:25:48;;;;;;;8.00;6.93;;;;;;;17.06;82.51;101271.53;4867223;29;20056;-78
2022/06/26 02:28:16;;;;;;;6.38;5.78;;;;;;;17.04;82.76;101268.13;4881193;29;20044;-78
2022/06/26 02:30:41;;;;;;;11.23;7.35;;;;;;;17.03;82.63;101263.81;4867057;29;20037;-79
2022/06/26 02:33:07;;;;;;;7.60;6.70;;;;;;;17.02;82.78;101265.56;4880068;29;20087;-79
2022/06/26 02:35:33;;;;;;;9.98;6.63;;;;;;;17.02;82.85;101259.44;4882795;29;20340;-79
2022/06/26 02:37:58;;;;;;;7.07;6.32;;;;;;;16.99;82.66;101265.78;4863851;29;20044;-79
2022/06/26 02:40:25;;;;;;;7.18;6.10;;;;;;;16.97;82.58;101259.75;4864557;29;20074;-79
2022/06/26 02:42:51;;;;;;;8.38;6.90;;;;;;;16.98;82.50;101260.56;4867296;29;20220;-81
2022/06/26 02:45:17;;;;;;;8.35;6.20;;;;;;;16.97;82.58;101272.09;4864548;29;20132;-79
2022/06/26 02:47:43;;;;;;;9.38;6.57;;;;;;;16.94;82.78;101259.91;4880854;29;20089;-79
2022/06/26 02:50:09;;;;;;;7.35;6.40;;;;;;;16.93;82.61;101266.13;4882250;29;20384;-79
2022/06/26 02:52:35;;;;;;;10.00;6.50;;;;;;;16.92;82.87;101272.38;4864331;29;20033;-79
2022/06/26 02:55:02;;;;;;;7.85;6.65;;;;;;;16.91;82.88;101272.47;4883537;29;20416;-79
2022/06/26 02:57:28;;;;;;;7.28;6.25;;;;;;;16.88;83.00;101276.13;4880842;29;20077;-79
2022/06/26 02:59:53;;;;;;;7.50;6.72;;;;;;;16.88;82.65;101278.78;4866796;29;20037;-80
2022/06/26 03:02:19;;;;;;;11.57;7.20;;;;;;;16.86;82.96;101275.38;4865953;29;20060;-79
2022/06/26 03:04:45;;;;;;;8.45;7.03;;;;;;;16.86;82.72;101286.84;4885328;29;20029;-79
2022/06/26 03:07:10;;;;;;;6.88;6.13;;;;;;;16.83;82.99;101284.38;4890892;29;20081;-80
2022/06/26 03:09:36;;;;;;;8.00;6.63;;;;;;;16.83;82.94;101286.16;4884372;29;20041;-79
2022/06/26 03:12:02;;;;;;;9.55;7.20;;;;;;;16.81;82.77;101286.22;4880357;29;20072;-79
2022/06/26 03:14:27;;;;;;;9.60;6.53;;;;;;;16.80;82.91;101286.31;4883936;29;20029;-79
2022/06/26 03:16:53;;;;;;;9.00;6.45;;;;;;;16.78;82.94;101285.56;4883064;29;20040;-79
2022/06/26 03:19:18;;;;;;;7.22;6.35;;;;;;;16.76;82.80;101295.38;4882293;29;20049;-79
2022/06/26 03:21:44;;;;;;;11.07;7.15;;;;;;;16.76;82.61;101298.03;4882531;29;20060;-80
2022/06/26 03:24:09;;;;;;;9.13;6.95;;;;;;;16.75;82.69;101305.09;4884784;29;20100;-80
2022/06/26 03:26:36;;;;;;;10.82;7.03;;;;;;;16.72;82.82;101300.00;4865683;29;20289;-79
2022/06/26 03:29:05;;;;;;;9.70;6.82;;;;;;;16.72;82.93;101301.78;4882283;29;20040;-79
2022/06/26 03:31:30;;;;;;;8.60;6.47;;;;;;;16.70;82.85;101296.59;4882050;29;20308;-79
2022/06/26 03:33:56;;;;;;;9.35;6.95;;;;;;;16.68;82.95;101301.97;4880553;29;20322;-79
2022/06/26 03:36:23;;;;;;;10.50;6.20;;;;;;;16.68;82.82;101315.19;4882624;29;20380;-79
2022/06/26 03:38:49;;;;;;;8.63;6.55;;;;;;;16.66;83.10;101317.09;4855806;29;20064;-79
2022/06/26 03:41:14;;;;;;;9.70;6.95;;;;;;;16.65;83.13;101318.00;4884700;29;20045;-80
2022/06/26 03:43:40;;;;;;;10.43;6.60;;;;;;;16.64;82.79;101312.81;4881956;29;20309;-79
2022/06/26 03:46:06;;;;;;;9.55;6.57;;;;;;;16.62;82.86;101309.41;4884324;29;20045;-79
2022/06/26 03:48:31;;;;;;;16.33;6.72;;;;;;;16.61;82.79;101319.13;4881620;29;20328;-79
2022/06/26 03:50:57;;;;;;;11.20;7.15;;;;;;;16.60;82.63;101314.78;4884241;29;20125;-79
2022/06/26 03:53:23;;;;;;;10.90;6.25;;;;;;;16.60;82.77;101312.13;4881781;29;20431;-79
2022/06/26 03:55:49;;;;;;;9.25;6.15;;;;;;;16.59;82.93;101318.38;4865257;29;20096;-79
2022/06/26 03:58:14;;;;;;;9.18;6.38;;;;;;;16.59;82.97;101320.16;4849164;29;20028;-79
2022/06/26 04:00:40;;;;;;;9.70;6.07;;;;;;;16.58;83.09;101315.81;4866892;29;20364;-79
2022/06/26 04:03:06;;;;;;;11.02;5.85;;;;;;;16.57;83.24;101322.91;4883426;29;20328;-79
2022/06/26 04:05:32;;;;;;;8.55;6.18;;;;;;;16.57;83.39;101328.19;4881761;29;20355;-79
2022/06/26 04:07:58;;;;;;;9.57;6.47;;;;;;;16.56;83.35;101329.13;4864510;29;20413;-79
2022/06/26 04:10:24;;;;;;;7.35;5.70;;;;;;;16.54;83.07;101320.44;4879882;29;20116;-79
2022/06/26 04:12:49;;;;;;;8.85;6.53;;;;;;;16.54;83.33;101323.06;4880416;29;20316;-79
2022/06/26 04:15:15;;;;;;;8.77;6.43;;;;;;;16.53;83.44;101318.72;4881077;29;20100;-79
2022/06/26 04:17:40;;;;;;;8.50;6.18;;;;;;;16.54;83.43;101327.53;4881612;29;20048;-79
2022/06/26 04:20:07;;;;;;;11.93;5.82;;;;;;;16.53;83.56;101331.94;4881404;29;20037;-79
2022/06/26 04:22:32;;;;;;;8.10;5.75;;;;;;;16.52;83.58;101332.91;4867461;29;20056;-79
2022/06/26 04:24:58;;;;;;;7.60;5.65;;;;;;;16.50;83.41;101338.25;4880939;29;20033;-79
2022/06/26 04:27:23;;;;;;;5.85;5.13;;;;;;;16.51;83.50;101345.25;4867389;29;20024;-79
2022/06/26 04:29:48;;;;;;;9.05;5.22;;;;;;;16.50;83.40;101346.19;4881909;29;20048;-79
2022/06/26 04:32:14;;;;;;;9.90;5.32;;;;;;;16.51;83.45;101354.97;4883437;29;20048;-79
2022/06/26 04:34:39;;;;;;;6.13;5.10;;;;;;;16.50;83.36;101354.13;4880934;29;20309;-79
2022/06/26 04:37:05;;;;;;;5.75;4.50;;;;;;;16.50;83.35;101355.94;4864208;29;20048;-79
2022/06/26 04:39:30;;;;;;;5.35;4.53;;;;;;;16.49;83.36;101367.44;4864138;29;20047;-79
2022/06/26 04:41:56;;;;;;;6.57;4.50;;;;;;;16.49;83.15;101367.44;4884625;29;20048;-79
2022/06/26 04:44:21;;;;;;;6.47;4.35;;;;;;;16.49;82.29;101370.06;4880659;29;20051;-79
2022/06/26 04:46:47;;;;;;;4.95;4.50;;;;;;;16.48;82.50;101366.59;4884871;29;20343;-80
2022/06/26 04:49:13;;;;;;;6.60;4.57;;;;;;;16.48;82.42;101371.88;4880562;29;20081;-79
2022/06/26 04:51:38;;;;;;;6.45;4.05;;;;;;;16.48;82.61;101376.28;4861406;29;20431;-79
2022/06/26 04:54:05;;;;;;;4.75;3.67;;;;;;;16.48;82.76;101379.81;4879418;29;20244;-79
2022/06/26 04:56:31;;;;;;;6.72;4.28;;;;;;;16.47;82.26;101388.66;4882413;29;20190;-79
2022/06/26 04:58:56;;;;;;;5.60;4.00;;;;;;;16.47;82.08;101396.59;4866309;29;20104;-79
2022/06/26 05:01:23;;;;;;;3.92;3.58;;;;;;;16.47;82.20;101393.94;4881194;29;20047;-79
2022/06/26 05:03:48;;;;;;;4.70;4.00;;;;;;;16.48;82.44;101405.38;4885037;29;20041;-79
2022/06/26 05:06:14;;;;;;;6.93;4.15;;;;;;;16.47;82.17;101386.03;4880814;29;20284;-79
2022/06/26 05:08:39;;;;;;;5.47;3.50;;;;;;;16.47;82.19;101393.09;4884152;29;20271;-79
2022/06/26 05:11:05;;;;;;;4.78;3.70;;;;;;;16.47;82.07;101393.09;4863716;29;20068;-79
2022/06/26 05:13:30;;;;;;;4.32;3.78;;;;;;;16.46;82.20;101396.69;4885579;29;20189;-79
2022/06/26 05:15:57;;;;;;;3.78;3.45;;;;;;;16.46;82.29;101389.63;4865073;29;20032;-80
2022/06/26 05:18:23;;;;;;;7.35;3.85;;;;;;;16.48;81.97;101400.09;4865176;29;20120;-80
2022/06/26 05:20:48;;;;;;;3.75;3.00;;;;;;;16.47;81.89;101399.25;4882882;29;20029;-79
2022/06/26 05:23:14;;;;;;;4.70;3.00;;;;;;;16.47;81.30;101386.03;4867311;29;20116;-79
2022/06/26 05:25:40;;;;;;;5.75;3.47;;;;;;;16.48;81.44;101386.88;4863736;29;20037;-79
2022/06/26 05:28:06;;;;;;;3.47;3.25;;;;;;;16.47;81.36;101393.09;4883252;29;20128;-79
2022/06/26 05:30:32;;;;;;;3.33;3.08;;;;;;;16.46;81.78;101401.97;4879216;29;20496;-79
2022/06/26 05:32:57;;;;;;;3.75;3.38;;;;;;;16.44;81.64;101393.28;4847844;29;20039;-79
2022/06/26 05:35:23;;;;;;;3.45;3.15;;;;;;;16.44;81.51;101406.50;4845478;29;20041;-79
2022/06/26 05:37:48;;;;;;;3.95;3.00;;;;;;;16.44;81.44;101402.03;4879517;29;20047;-79
2022/06/26 05:40:13;;;;;;;2.88;2.45;;;;;;;16.44;81.57;101407.34;4878608;29;20111;-79
2022/06/26 05:42:39;;;;;;;5.05;2.80;;;;;;;16.45;81.41;101408.22;4851298;29;20322;-79
2022/06/26 05:45:05;;;;;;;3.20;2.70;;;;;;;16.44;80.83;101414.41;4879324;29;20281;-79
2022/06/26 05:47:30;;;;;;;3.10;2.90;;;;;;;16.44;80.74;101423.19;4848155;29;20049;-79
2022/06/26 05:49:56;;;;;;;2.70;2.50;;;;;;;16.45;80.84;101419.63;4877139;29;20119;-80
2022/06/26 05:52:21;;;;;;;3.65;2.90;;;;;;;16.45;80.74;101430.19;4878869;29;20037;-79
2022/06/26 05:54:47;;;;;;;2.53;2.33;;;;;;;16.46;80.16;101431.03;4866354;29;20331;-79
2022/06/26 05:57:13;;;;;;;2.63;2.42;;;;;;;16.47;80.68;101435.41;4852182;29;20073;-79
2022/06/26 05:59:39;;;;;;;2.33;2.13;;;;;;;16.46;80.52;101434.56;4865723;29;20068;-79
2022/06/26 06:02:04;;;;;;;3.67;2.95;;;;;;;16.47;80.76;101441.53;4880668;29;20032;-79
2022/06/26 06:04:30;;;;;;;4.28;2.67;;;;;;;16.46;80.54;101439.84;4879922;29;20392;-79
2022/06/26 06:06:55;;;;;;;2.55;2.22;;;;;;;16.47;80.04;101438.06;4879182;29;20040;-79
2022/06/26 06:09:20;;;;;;;3.38;3.05;;;;;;;16.46;80.41;101445.13;4881373;29;20041;-80
2022/06/26 06:11:46;;;;;;;2.70;2.20;;;;;;;16.47;80.46;101436.25;4846038;29;20045;-79
2022/06/26 06:14:11;;;;;;;2.45;2.30;;;;;;;16.48;80.86;101440.59;4878862;29;20036;-79
2022/06/26 06:16:36;;;;;;;2.38;2.28;;;;;;;16.49;81.07;101442.31;4862476;29;20045;-79
2022/06/26 06:19:02;;;;;;;4.05;2.15;;;;;;;16.48;80.84;101442.38;4879527;29;20256;-79
2022/06/26 06:21:27;;;;;;;2.47;2.22;;;;;;;16.49;80.54;101449.38;4860243;29;20071;-79
2022/06/26 06:23:53;;;;;;;2.17;1.98;;;;;;;16.50;81.01;101453.75;4865071;29;20040;-80
2022/06/26 06:26:18;;;;;;;2.42;1.90;;;;;;;16.50;80.77;101459.88;4861349;29;20345;-79
2022/06/26 06:28:44;;;;;;;2.88;2.58;;;;;;;16.52;80.77;101467.72;4849121;29;20100;-79
2022/06/26 06:31:09;;;;;;;2.60;1.95;;;;;;;16.52;80.66;101473.03;4861565;29;20041;-79
2022/06/26 06:33:35;;;;;;;2.25;2.08;;;;;;;16.53;80.83;101482.63;4873446;29;20060;-80
2022/06/26 06:36:00;;;;;;;2.25;1.88;;;;;;;16.54;80.83;101499.38;4860820;29;20067;-80
2022/06/26 06:38:26;;;;;;;2.63;2.17;;;;;;;16.54;80.59;101504.66;4882569;29;20045;-79
2022/06/26 06:40:51;;;;;;;2.20;2.00;;;;;;;16.55;80.82;101524.88;4862497;29;20052;-80
2022/06/26 06:43:17;;;;;;;2.25;2.05;;;;;;;16.56;80.56;101526.59;4865481;29;20045;-79
2022/06/26 06:45:42;;;;;;;2.35;2.15;;;;;;;16.56;80.60;101518.66;4850359;29;20104;-79
2022/06/26 06:48:08;;;;;;;6.35;2.58;;;;;;;16.56;80.55;101519.50;4865242;29;20045;-79
2022/06/26 06:50:34;;;;;;;3.35;2.53;;;;;;;16.56;80.96;101526.59;4880662;29;20053;-79
2022/06/26 06:53:00;;;;;;;4.68;2.40;;;;;;;16.54;80.87;101524.03;4879585;29;20533;-79
2022/06/26 06:55:26;;;;;;;4.28;2.22;;;;;;;16.57;80.90;101518.56;4877522;29;20041;-80
2022/06/26 06:57:51;;;;;;;2.47;2.20;;;;;;;16.58;80.63;101517.63;4880495;29;20037;-80
2022/06/26 07:00:16;;;;;;;2.38;2.08;;;;;;;16.59;80.87;101534.31;4881486;29;20037;-80
2022/06/26 07:02:42;;;;;;;3.72;2.30;;;;;;;16.60;80.52;101544.81;4882474;29;20047;-79
2022/06/26 07:05:08;;;;;;;1.92;1.83;;;;;;;16.62;80.85;101536.81;4865149;29;20348;-79
2022/06/26 07:07:34;;;;;;;2.88;1.90;;;;;;;16.61;80.96;101533.31;4882177;29;20052;-80
2022/06/26 07:10:00;;;;;;;2.45;2.10;;;;;;;16.62;80.89;101532.38;4864511;29;20028;-79
2022/06/26 07:12:25;;;;;;;2.13;1.95;;;;;;;16.63;80.42;101533.25;4881533;29;20116;-79
2022/06/26 07:14:52;;;;;;;1.85;1.75;;;;;;;16.64;80.38;101535.78;4866500;29;20228;-79
2022/06/26 07:17:18;;;;;;;1.70;1.60;;;;;;;16.65;80.37;101534.00;4864869;29;20129;-80
2022/06/26 07:19:44;;;;;;;2.88;1.95;;;;;;;16.65;80.31;101539.28;4849057;29;20527;-79
2022/06/26 07:22:09;;;;;;;2.33;2.00;;;;;;;16.65;80.48;101537.50;4878646;29;20398;-79
2022/06/26 07:24:34;;;;;;;2.25;1.65;;;;;;;16.66;79.99;101551.56;4878920;29;20044;-80
2022/06/26 07:27:03;;;;;;;2.03;1.60;;;;;;;16.67;79.83;101551.47;4865331;29;20292;-79
2022/06/26 07:29:29;;;;;;;1.90;1.73;;;;;;;16.68;79.52;101552.31;4885352;29;20404;-79
2022/06/26 07:31:54;;;;;;;2.88;1.35;;;;;;;16.68;79.97;101547.91;4865153;29;20105;-79
2022/06/26 07:34:21;;;;;;;1.95;1.50;;;;;;;16.69;79.40;101540.81;4862930;29;20396;-79
2022/06/26 07:36:48;;;;;;;1.42;1.33;;;;;;;16.70;79.31;101542.53;4879229;29;20417;-80
2022/06/26 07:39:15;;;;;;;1.60;1.50;;;;;;;16.70;79.20;101550.47;4875318;29;20045;-80
2022/06/26 07:41:42;;;;;;;4.35;1.70;;;;;;;16.70;79.44;101553.97;4880677;29;20056;-80
2022/06/26 07:44:07;;;;;;;2.30;1.48;;;;;;;16.72;79.49;101556.53;4877844;29;20048;-79
2022/06/26 07:46:34;;;;;;;2.40;1.38;;;;;;;16.73;79.06;101557.38;4866419;29;20029;-80
2022/06/26 07:49:04;;;;;;;3.03;1.60;;;;;;;16.73;79.20;101558.22;4881948;29;20362;-80
2022/06/26 07:51:29;;;;;;;1.45;1.35;;;;;;;16.76;79.44;101560.72;4890034;29;20033;-80
2022/06/26 07:53:55;;;;;;;2.78;1.50;;;;;;;16.77;79.22;101558.91;4878151;29;20048;-79
2022/06/26 07:56:20;;;;;;;2.25;1.40;;;;;;;16.77;79.16;101559.78;4857066;29;20045;-79
2022/06/26 07:58:46;;;;;;;1.83;1.70;;;;;;;16.78;78.89;101561.47;4866940;29;20224;-79
2022/06/26 08:01:11;;;;;;;1.80;1.58;;;;;;;16.80;79.33;101558.75;4881296;29;20248;-79
2022/06/26 08:03:37;;;;;;;1.60;1.50;;;;;;;16.79;79.43;101563.19;4882708;29;20048;-80
2022/06/26 08:06:03;;;;;;;1.60;1.50;;;;;;;16.80;79.42;101569.31;4886096;29;20044;-79
2022/06/26 08:08:29;;;;;;;1.40;1.30;;;;;;;16.80;79.27;101564.03;4879757;29;20036;-80
2022/06/26 08:10:56;;;;;;;3.28;1.95;;;;;;;16.81;79.51;101569.25;4884776;29;20359;-79
2022/06/26 08:13:22;;;;;;;1.98;1.80;;;;;;;16.82;79.31;101562.16;4883688;29;20053;-80
2022/06/26 08:15:47;;;;;;;1.73;1.63;;;;;;;16.82;79.15;101563.00;4880870;29;20416;-79
2022/06/26 08:18:12;;;;;;;2.25;2.00;;;;;;;16.85;79.22;101562.03;4878438;29;20356;-79
2022/06/26 08:20:38;;;;;;;2.08;1.70;;;;;;;16.87;78.95;101562.78;4874790;29;20048;-79
2022/06/26 08:23:03;;;;;;;2.50;1.73;;;;;;;16.88;79.01;101559.19;4872444;29;20345;-79
2022/06/26 08:25:29;;;;;;;2.08;1.58;;;;;;;16.91;78.92;101560.84;4858190;29;20304;-79
2022/06/26 08:27:55;;;;;;;1.75;1.40;;;;;;;16.93;79.24;101558.94;4881791;29;20044;-79
2022/06/26 08:30:20;;;;;;;2.08;1.50;;;;;;;16.93;78.88;101558.94;4877387;29;20276;-79
2022/06/26 08:32:46;;;;;;;1.92;1.50;;;;;;;16.95;79.19;101563.19;4864410;29;20063;-79
2022/06/26 08:35:13;;;;;;;4.22;1.60;;;;;;;16.96;79.08;101572.84;4860527;29;20037;-79
2022/06/26 08:37:38;;;;;;;2.42;1.30;;;;;;;16.95;78.83;101576.44;4860899;29;20335;-79
2022/06/26 08:40:05;;;;;;;1.55;1.45;;;;;;;16.97;79.06;101579.88;4880234;29;20040;-79
2022/06/26 08:42:31;;;;;;;1.95;1.27;;;;;;;16.99;79.41;101571.81;4877906;29;20397;-79
2022/06/26 08:44:58;;;;;;;2.60;1.50;;;;;;;17.01;79.47;101569.97;4875129;29;20224;-79
2022/06/26 08:47:25;;;;;;;3.20;1.40;;;;;;;17.01;79.36;101576.09;4880159;29;20387;-80
2022/06/26 08:49:54;;;;;;;2.85;1.40;;;;;;;17.04;79.31;101583.00;4878783;29;20270;-80
2022/06/26 08:52:21;;;;;;;1.15;1.05;;;;;;;17.04;79.37;101585.66;4859130;29;20113;-80
2022/06/26 08:54:48;;;;;;;1.23;1.10;;;;;;;17.05;78.82;101575.00;4880276;29;20418;-80
2022/06/26 08:57:15;;;;;;;1.75;0.98;;;;;;;17.06;78.92;101583.78;4861541;29;20072;-79
2022/06/26 08:59:41;;;;;;;4.05;1.30;;;;;;;17.07;78.62;101575.75;4874946;29;20033;-80
2022/06/26 09:02:07;;;;;;;1.10;1.00;;;;;;;17.10;78.31;101569.44;4875701;29;20040;-80
2022/06/26 09:04:32;;;;;;;1.20;1.05;;;;;;;17.12;78.02;101570.22;4862282;29;21576;-79
2022/06/26 09:06:58;;;;;;;1.90;1.20;;;;;;;17.15;77.96;101577.97;4878123;29;20048;-79
2022/06/26 09:09:27;;;;;;;1.15;1.10;;;;;;;17.18;78.13;101571.66;4860503;29;20037;-79
2022/06/26 09:11:57;;;;;;;1.20;1.00;;;;;;;17.18;78.05;101571.66;4873704;29;20296;-79
2022/06/26 09:14:25;;;;;;;1.30;1.00;;;;;;;17.19;77.70;101576.00;4874823;29;20092;-80
2022/06/26 09:16:52;;;;;;;1.67;1.30;;;;;;;17.20;77.61;101583.84;4861785;29;20033;-80
2022/06/26 09:19:26;;;;;;;1.17;1.02;;;;;;;17.20;77.57;101586.50;4873961;29;20053;-79
2022/06/26 09:22:03;;;;;;;4.75;1.42;;;;;;;17.22;77.62;101586.41;4879222;29;20422;-79
2022/06/26 09:24:29;;;;;;;2.30;1.10;;;;;;;17.23;76.99;101588.13;4877763;29;20029;-79
2022/06/26 09:27:15;;;;;;;2.53;1.20;;;;;;;17.25;77.67;101594.19;4877396;29;20072;-80
2022/06/26 09:29:47;;;;;;;3.40;1.63;;;;;;;17.26;77.14;101593.22;4879128;29;20037;-80
2022/06/26 09:32:14;;;;;;;1.73;1.20;;;;;;;17.26;76.52;101591.47;4880248;29;20392;-80
2022/06/26 09:34:46;;;;;;;11.77;1.55;;;;;;;17.29;76.76;101598.38;4879659;29;20084;-80
2022/06/26 09:37:11;;;;;;;3.47;1.45;;;;;;;17.29;76.93;101590.41;4844424;29;20048;-79
2022/06/26 09:39:37;;;;;;;3.78;1.60;;;;;;;17.32;77.56;101592.03;4879271;29;20231;-80
2022/06/26 09:42:24;;;;;;;2.20;1.40;;;;;;;17.33;78.12;101591.94;4858193;29;20072;-80
2022/06/26 09:44:52;;;;;;;1.40;1.30;;;;;;;17.37;78.08;101600.56;4857986;29;20093;-79
2022/06/26 09:47:32;;;;;;;1.50;1.40;;;;;;;17.38;77.49;101604.94;4878503;29;20070;-80
2022/06/26 09:50:00;;;;;;;1.35;1.25;;;;;;;17.40;77.56;101608.34;4861167;29;20077;-79
2022/06/26 09:52:28;;;;;;;3.87;2.00;;;;;;;17.41;78.24;101605.63;4877119;29;20391;-79
2022/06/26 09:54:55;;;;;;;1.60;1.50;;;;;;;17.43;78.51;101605.53;4873745;29;20232;-79
2022/06/26 09:57:21;;;;;;;1.60;1.50;;;;;;;17.44;78.53;101604.56;4877619;29;20228;-80
2022/06/26 09:59:47;;;;;;;2.63;1.58;;;;;;;17.45;78.47;101615.06;4878278;29;20241;-80
2022/06/26 10:08:05;;;;;;;3.22;2.15;;;;;;;17.52;77.90;101612.06;4876485;29;20305;-79
2022/06/26 10:10:33;;;;;;;2.80;2.58;;;;;;;17.51;77.73;101602.44;4876279;29;20045;-79
2022/06/26 10:13:05;;;;;;;1.73;1.30;;;;;;;17.53;77.87;101600.53;4878488;29;20237;-79
2022/06/26 10:15:54;;;;;;;1.55;1.40;;;;;;;17.55;77.59;101612.75;4875853;29;20028;-79
2022/06/26 10:18:31;;;;;;;1.95;1.40;;;;;;;17.56;77.30;101609.16;4875279;29;20049;-79
2022/06/26 10:21:08;;;;;;;3.83;2.17;;;;;;;17.59;77.15;101613.41;4871640;29;20061;-79
2022/06/26 10:23:36;;;;;;;1.95;1.60;;;;;;;17.61;76.52;101619.50;4878657;29;20035;-80
2022/06/26 10:26:20;;;;;;;1.77;1.40;;;;;;;17.60;75.79;101613.34;4857118;29;20056;-79
2022/06/26 10:29:04;;;;;;;2.45;1.42;;;;;;;17.63;75.91;101617.63;4875123;29;20038;-79
2022/06/26 10:31:44;;;;;;;5.78;1.83;;;;;;;17.63;75.59;101615.81;4873927;29;20103;-79
2022/06/26 10:34:21;;;;;;;2.58;1.80;;;;;;;17.64;75.88;101627.25;4877346;29;20045;-79
2022/06/26 10:37:18;;;;;;;1.80;1.58;;;;;;;17.67;75.66;101628.88;4857527;29;20033;-80
2022/06/26 10:39:52;;;;;;;1.88;1.60;;;;;;;17.67;75.43;101615.66;4831763;29;20041;-80
2022/06/26 10:45:30;;;;;;;2.75;1.48;;;;;;;17.72;75.79;101616.19;4875047;29;20236;-79
2022/06/26 10:48:00;;;;;;;3.17;1.95;;;;;;;17.72;75.91;101611.78;4864206;29;20033;-79
2022/06/26 10:50:37;;;;;;;3.47;1.80;;;;;;;17.73;76.29;101608.16;4874868;29;20252;-79
2022/06/26 10:53:17;;;;;;;3.13;2.05;;;;;;;17.73;76.50;101618.75;4880430;29;20285;-79
2022/06/26 10:55:49;;;;;;;2.30;1.90;;;;;;;17.75;76.69;101608.94;4877020;29;20459;-80
2022/06/26 10:58:36;;;;;;;2.85;1.83;;;;;;;17.77;76.79;101615.03;4854984;29;20315;-79
2022/06/26 11:01:03;;;;;;;2.78;2.33;;;;;;;17.79;76.72;101618.44;4854110;29;20029;-79
2022/06/26 11:03:30;;;;;;;2.47;2.00;;;;;;;17.81;76.86;101619.19;4877515;29;20111;-79
2022/06/26 11:05:58;;;;;;;3.40;2.25;;;;;;;17.83;77.22;101621.75;4877348;29;20303;-79
2022/06/26 11:08:54;;;;;;;2.40;2.20;;;;;;;17.86;77.63;101618.09;4881137;29;20364;-80
2022/06/26 11:11:30;;;;;;;2.42;2.13;;;;;;;17.88;77.47;101616.19;4865242;29;20053;-79
2022/06/26 11:14:07;;;;;;;2.80;1.95;;;;;;;17.90;76.97;101619.59;4880705;29;20104;-79
2022/06/26 11:16:41;;;;;;;2.80;2.60;;;;;;;17.90;76.90;101622.25;4877631;29;20055;-79
2022/06/26 11:19:19;;;;;;;2.88;2.65;;;;;;;17.91;76.94;101614.22;4879627;29;20333;-79
2022/06/26 11:21:44;;;;;;;4.25;2.65;;;;;;;17.93;76.90;101606.19;4876602;29;20223;-79
2022/06/26 11:24:10;;;;;;;7.15;2.92;;;;;;;17.94;77.22;101614.03;4883003;29;20333;-80
2022/06/26 11:26:35;;;;;;;2.65;2.45;;;;;;;17.97;76.72;101615.66;4879612;29;20364;-80
2022/06/26 11:29:03;;;;;;;3.97;3.00;;;;;;;18.00;76.51;101610.19;4883443;29;20045;-79
2022/06/26 11:31:30;;;;;;;5.70;3.25;;;;;;;18.03;76.50;101604.69;4880134;29;20024;-79
2022/06/26 11:34:15;;;;;;;4.80;2.67;;;;;;;18.09;76.92;101600.81;4862771;29;20071;-80
2022/06/26 11:36:50;;;;;;;3.15;2.85;;;;;;;18.10;75.29;101600.75;4876523;29;20041;-79
2022/06/26 11:39:17;;;;;;;7.97;3.25;;;;;;;18.11;72.87;101597.13;4874501;29;20235;-80